Linda Moran — WDE4187 — position and weather

sailwx.info

Track history (hours):
 
Tides and Currents Weather Stations Pressure Air Temp Water Temp Dewpoint Dewpoint Depression Visibility Wind Speed Wind Dir Waves Ship Positions

Linda Moran

Owner: MORAN TOWING CORP., NEW CANAAN, CT. More information available from US FCC via Universal Licensing System and Coast Guard Vessel Documentation Center.

Last reported at 2018-Jul-20 02:30 UTC. Time now 2018-Jul-20 02:46 UTC.
Position N 39°33' W 075°33'.

Length 156 m; draft 7.6 m.

Type: . MMSI: 367349860.

Date/timePositionNaut miles runAvg speedWind from/ knotsBaromVisibWave heightAir tempDewpointWater temp
2018-Jul-20 02:30N 39°33' W 075°33'0 0.0
2018-Jul-20 02:00N 39°33' W 075°33'0 0.0
2018-Jul-20 01:30N 39°33' W 075°33'0 0.0
2018-Jul-20 01:00N 39°33' W 075°33'2 3.1
2018-Jul-20 00:30N 39°34' W 075°34'2 3.4
2018-Jul-20 00:00N 39°35' W 075°36'0 0.0
2018-Jul-19 23:28N 39°35' W 075°36'0 0.0
2018-Jul-19 22:58N 39°35' W 075°36'0 0.0
2018-Jul-19 22:28N 39°35' W 075°36'0 0.0
2018-Jul-19 21:58N 39°35' W 075°36'0 0.0
2018-Jul-19 21:28N 39°35' W 075°36'0 0.0
2018-Jul-19 20:58N 39°35' W 075°36'0 0.0
2018-Jul-19 20:28N 39°35' W 075°36'0 0.0
2018-Jul-19 19:58N 39°35' W 075°36'0 0.0
2018-Jul-19 19:28N 39°35' W 075°36'0 0.0
2018-Jul-19 18:58N 39°35' W 075°36'0 0.0
2018-Jul-19 18:28N 39°35' W 075°36'0 0.0
2018-Jul-19 17:55N 39°35' W 075°36'0 0.0
2018-Jul-19 16:25N 39°35' W 075°36'0 0.0
2018-Jul-19 15:58N 39°35' W 075°36'0 0.0
2018-Jul-19 15:28N 39°35' W 075°36'0 0.0
2018-Jul-19 14:58N 39°35' W 075°36'0 0.0
2018-Jul-19 13:58N 39°35' W 075°36'0 0.0
2018-Jul-19 13:28N 39°35' W 075°36'0 0.0
2018-Jul-19 12:58N 39°35' W 075°36'0 0.0
2018-Jul-19 12:28N 39°35' W 075°36'0 0.0
2018-Jul-19 11:58N 39°35' W 075°36'0 0.0
2018-Jul-19 11:28N 39°35' W 075°36'0 0.0
2018-Jul-19 10:58N 39°35' W 075°36'0 0.0
2018-Jul-19 10:28N 39°35' W 075°36'0 0.0
2018-Jul-19 09:58N 39°35' W 075°36'0 0.0
2018-Jul-19 09:28N 39°35' W 075°36'0 0.0
2018-Jul-19 08:58N 39°35' W 075°36'0 0.0
2018-Jul-19 08:28N 39°35' W 075°36'0 0.0
2018-Jul-19 07:58N 39°35' W 075°36'0 0.0
2018-Jul-19 07:28N 39°35' W 075°36'0 0.0
2018-Jul-19 06:58N 39°35' W 075°36'0 0.0
2018-Jul-19 06:28N 39°35' W 075°36'0 0.0
2018-Jul-19 05:58N 39°35' W 075°36'0 0.0
2018-Jul-19 05:28N 39°35' W 075°36'0 0.0
2018-Jul-19 04:58N 39°35' W 075°36'0 0.0
2018-Jul-19 04:28N 39°35' W 075°36'0 0.0
2018-Jul-19 03:58N 39°35' W 075°36'0 0.0
2018-Jul-19 03:28N 39°35' W 075°36'0 0.0
2018-Jul-19 02:58N 39°35' W 075°36'0 0.0
2018-Jul-19 02:30N 39°35' W 075°36'2 4.0
2018-Jul-19 02:00N 39°34' W 075°33'4 7.2
2018-Jul-19 01:30N 39°37' W 075°35'611.8
2018-Jul-19 01:00N 39°42' W 075°31'611.1
2018-Jul-19 00:30N 39°47' W 075°27'510.8
2018-Jul-19 00:00N 39°50' W 075°21'5 9.2
2018-Jul-18 23:30N 39°51' W 075°15'0 0.6
2018-Jul-18 22:58N 39°51' W 075°15'0 0.0
2018-Jul-18 22:28N 39°51' W 075°15'0 0.0
2018-Jul-18 21:58N 39°51' W 075°15'0 0.0
2018-Jul-18 21:28N 39°51' W 075°15'0 0.0
2018-Jul-18 20:58N 39°51' W 075°15'0 0.0
2018-Jul-18 20:28N 39°51' W 075°15'0 0.0
2018-Jul-18 19:58N 39°51' W 075°15'0 0.0
2018-Jul-18 19:28N 39°51' W 075°15'0 0.0
2018-Jul-18 18:58N 39°51' W 075°15'0 0.0
2018-Jul-18 18:28N 39°51' W 075°15'0 0.0
2018-Jul-18 17:58N 39°51' W 075°15'0 0.0
2018-Jul-18 17:28N 39°51' W 075°15'0 0.0
2018-Jul-18 16:58N 39°51' W 075°15'0 0.0
2018-Jul-18 16:28N 39°51' W 075°15'0 0.0
2018-Jul-18 15:58N 39°51' W 075°15'0 0.0
2018-Jul-18 15:28N 39°51' W 075°15'0 0.0
2018-Jul-18 14:58N 39°51' W 075°15'0 0.0
2018-Jul-18 14:28N 39°51' W 075°15'0 0.0
2018-Jul-18 13:28N 39°51' W 075°15'0 0.0
2018-Jul-18 12:58N 39°51' W 075°15'0 0.0
2018-Jul-18 12:28N 39°51' W 075°15'0 0.0
2018-Jul-18 11:58N 39°51' W 075°15'0 0.0
2018-Jul-18 11:28N 39°51' W 075°15'0 0.0
2018-Jul-18 10:28N 39°51' W 075°15'0 0.0
2018-Jul-18 09:58N 39°51' W 075°15'0 0.0
2018-Jul-18 09:28N 39°51' W 075°15'0 0.0
2018-Jul-18 08:58N 39°51' W 075°15'0 0.0
2018-Jul-18 08:28N 39°51' W 075°15'0 0.0
2018-Jul-18 08:00N 39°51' W 075°15'2 4.5
2018-Jul-18 07:30N 39°52' W 075°13'4 7.2
2018-Jul-18 07:00N 39°54' W 075°08'4 7.9
2018-Jul-18 06:30N 39°58' W 075°08'3 6.3
2018-Jul-18 06:01N 39°59' W 075°04'0 0.0
2018-Jul-18 05:30N 39°59' W 075°04'0 0.0
2018-Jul-18 05:00N 39°59' W 075°04'0 0.0
2018-Jul-18 04:30N 39°59' W 075°04'0 0.0
2018-Jul-18 04:00N 39°59' W 075°04'0 0.0
2018-Jul-18 03:28N 39°59' W 075°04'0 0.0
2018-Jul-18 02:58N 39°59' W 075°04'0 0.0
2018-Jul-18 02:28N 39°59' W 075°04'0 0.0
2018-Jul-18 01:58N 39°59' W 075°04'0 0.0
2018-Jul-18 01:28N 39°59' W 075°04'0 0.0
2018-Jul-18 00:58N 39°59' W 075°04'0 0.0
2018-Jul-18 00:28N 39°59' W 075°04'0 0.0
2018-Jul-17 23:58N 39°59' W 075°04'0 0.0
2018-Jul-17 23:28N 39°59' W 075°04'0 0.0
2018-Jul-17 22:58N 39°59' W 075°04'0 0.0
2018-Jul-17 22:28N 39°59' W 075°04'0 0.0
2018-Jul-17 21:58N 39°59' W 075°04'0 0.0
2018-Jul-17 21:28N 39°59' W 075°04'0 0.0
2018-Jul-17 20:58N 39°59' W 075°04'0 0.0
2018-Jul-17 20:28N 39°59' W 075°04'0 0.0
2018-Jul-17 19:58N 39°59' W 075°04'0 0.0
2018-Jul-17 19:28N 39°59' W 075°04'0 0.0
2018-Jul-17 18:58N 39°59' W 075°04'0 0.0
2018-Jul-17 18:28N 39°59' W 075°04'0 0.0
2018-Jul-17 17:58N 39°59' W 075°04'0 0.0
2018-Jul-17 17:28N 39°59' W 075°04'0 0.0
2018-Jul-17 16:58N 39°59' W 075°04'0 0.0
2018-Jul-17 16:28N 39°59' W 075°04'0 0.0
2018-Jul-17 15:55N 39°59' W 075°04'0 0.0
2018-Jul-17 15:28N 39°59' W 075°04'0 0.0
2018-Jul-17 14:58N 39°59' W 075°04'0 0.0
2018-Jul-17 14:28N 39°59' W 075°04'0 0.0
2018-Jul-17 13:58N 39°59' W 075°04'0 0.0
2018-Jul-17 13:25N 39°59' W 075°04'0 0.0
2018-Jul-17 12:58N 39°59' W 075°04'0 0.0
2018-Jul-17 12:28N 39°59' W 075°04'0 0.0
2018-Jul-17 11:58N 39°59' W 075°04'0 0.0
2018-Jul-17 11:28N 39°59' W 075°04'0 0.0
2018-Jul-17 10:58N 39°59' W 075°04'0 0.0
2018-Jul-17 10:28N 39°59' W 075°04'0 0.0
2018-Jul-17 09:58N 39°59' W 075°04'0 0.0
2018-Jul-17 09:28N 39°59' W 075°04'0 0.0
2018-Jul-17 08:58N 39°59' W 075°04'0 0.0
2018-Jul-17 08:28N 39°59' W 075°04'0 0.0
2018-Jul-17 07:55N 39°59' W 075°04'0 0.0
2018-Jul-17 07:28N 39°59' W 075°04'0 0.0
2018-Jul-17 06:58N 39°59' W 075°04'0 0.0
2018-Jul-17 06:28N 39°59' W 075°04'0 0.0
2018-Jul-17 05:58N 39°59' W 075°04'0 1.0
2018-Jul-17 05:30N 39°59' W 075°05'4 7.0
2018-Jul-17 05:00N 39°56' W 075°08'4 7.4
2018-Jul-17 04:30N 39°53' W 075°10'4 8.7
2018-Jul-17 04:01N 39°51' W 075°15'4 8.4
2018-Jul-17 03:31N 39°51' W 075°20'4 8.2
2018-Jul-17 03:00N 39°48' W 075°25'4 8.1
2018-Jul-17 02:30N 39°46' W 075°29'4 8.0
2018-Jul-17 02:00N 39°42' W 075°31'4 7.7
2018-Jul-17 01:30N 39°39' W 075°33'3 6.7
2018-Jul-17 01:00N 39°35' W 075°34'1 2.3
2018-Jul-17 00:31N 39°35' W 075°35'0 0.4
2018-Jul-16 23:31N 39°35' W 075°36'0 0.0
2018-Jul-16 22:59N 39°35' W 075°36'0 0.0
2018-Jul-16 22:29N 39°35' W 075°36'0 0.0
2018-Jul-16 21:59N 39°35' W 075°36'0 0.0
2018-Jul-16 21:29N 39°35' W 075°36'0 0.0
2018-Jul-16 20:59N 39°35' W 075°36'0 0.0
2018-Jul-16 20:29N 39°35' W 075°36'0 0.0
2018-Jul-16 19:59N 39°35' W 075°36'0 0.0
2018-Jul-16 19:29N 39°35' W 075°36'0 0.0
2018-Jul-16 18:59N 39°35' W 075°36'0 0.0
2018-Jul-16 18:29N 39°35' W 075°36'0 0.0
2018-Jul-16 17:59N 39°35' W 075°36'0 0.0
2018-Jul-16 17:29N 39°35' W 075°36'0 0.0
2018-Jul-16 16:59N 39°35' W 075°36'0 0.0
2018-Jul-16 16:29N 39°35' W 075°36'0 0.0
2018-Jul-16 15:59N 39°35' W 075°36'0 0.0
2018-Jul-16 15:29N 39°35' W 075°36'0 0.0
2018-Jul-16 14:59N 39°35' W 075°36'0 0.0
2018-Jul-16 14:29N 39°35' W 075°36'0 0.0
2018-Jul-16 13:59N 39°35' W 075°36'0 0.0
2018-Jul-16 13:29N 39°35' W 075°36'0 0.0
2018-Jul-16 12:59N 39°35' W 075°36'0 0.0
2018-Jul-16 12:29N 39°35' W 075°36'0 0.0
2018-Jul-16 11:59N 39°35' W 075°36'0 0.0
2018-Jul-16 11:29N 39°35' W 075°36'0 0.0
2018-Jul-16 10:59N 39°35' W 075°36'0 0.0
2018-Jul-16 10:29N 39°35' W 075°36'0 0.0
2018-Jul-16 09:59N 39°35' W 075°36'0 0.0
2018-Jul-16 09:29N 39°35' W 075°36'0 0.0
2018-Jul-16 08:59N 39°35' W 075°36'0 0.0
2018-Jul-16 08:29N 39°35' W 075°36'0 0.0
2018-Jul-16 07:59N 39°35' W 075°36'0 0.0
2018-Jul-16 07:29N 39°35' W 075°36'0 0.0
2018-Jul-16 06:59N 39°35' W 075°36'0 0.0
2018-Jul-16 06:29N 39°35' W 075°36'0 0.0
2018-Jul-16 05:59N 39°35' W 075°36'0 0.0
2018-Jul-16 05:29N 39°35' W 075°36'0 0.0
2018-Jul-16 04:59N 39°35' W 075°36'0 0.0
2018-Jul-16 04:29N 39°35' W 075°36'0 0.0
2018-Jul-16 03:59N 39°35' W 075°36'0 0.0
2018-Jul-16 03:29N 39°35' W 075°36'0 0.0
2018-Jul-16 02:59N 39°35' W 075°36'0 0.0
2018-Jul-16 02:29N 39°35' W 075°36'0 0.0
2018-Jul-16 01:59N 39°35' W 075°36'0 0.0
2018-Jul-16 01:29N 39°35' W 075°36'0 0.0
2018-Jul-16 00:56N 39°35' W 075°36'0 0.0
2018-Jul-16 00:29N 39°35' W 075°36'0 0.0
2018-Jul-16 00:00N 39°35' W 075°36'1 2.8
2018-Jul-15 23:30N 39°34' W 075°34'2 4.2
2018-Jul-15 22:59N 39°32' W 075°33'0 0.0
2018-Jul-15 22:29N 39°32' W 075°33'0 0.0
2018-Jul-15 21:59N 39°32' W 075°33'0 0.0
2018-Jul-15 21:29N 39°32' W 075°33'0 0.0
2018-Jul-15 20:59N 39°32' W 075°33'0 0.0
2018-Jul-15 20:29N 39°32' W 075°33'0 0.1
2018-Jul-15 19:59N 39°32' W 075°33'0 0.3
2018-Jul-15 19:29N 39°33' W 075°33'0 0.1
2018-Jul-15 18:59N 39°33' W 075°33'0 0.0
2018-Jul-15 18:29N 39°33' W 075°33'0 0.0
2018-Jul-15 17:59N 39°33' W 075°33'0 0.0
2018-Jul-15 17:29N 39°33' W 075°33'0 0.0
2018-Jul-15 16:59N 39°33' W 075°33'0 0.0
2018-Jul-15 16:29N 39°33' W 075°33'0 0.0
2018-Jul-15 15:59N 39°33' W 075°33'0 0.0
2018-Jul-15 15:29N 39°33' W 075°33'0 0.0
2018-Jul-15 14:59N 39°33' W 075°33'0 0.1
2018-Jul-15 14:23N 39°33' W 075°33'0 0.3
2018-Jul-15 13:59N 39°32' W 075°33'0 0.1
2018-Jul-15 13:29N 39°32' W 075°33'0 0.0
2018-Jul-15 12:59N 39°32' W 075°33'0 0.0
2018-Jul-15 12:29N 39°32' W 075°33'0 0.0
2018-Jul-15 11:59N 39°32' W 075°33'0 0.0
2018-Jul-15 11:29N 39°32' W 075°33'0 0.0
2018-Jul-15 10:59N 39°32' W 075°33'0 0.0
2018-Jul-15 10:29N 39°32' W 075°33'0 0.0
2018-Jul-15 09:59N 39°32' W 075°33'0 0.0
2018-Jul-15 09:29N 39°32' W 075°33'0 0.0
2018-Jul-15 08:59N 39°32' W 075°33'0 0.0
2018-Jul-15 08:29N 39°32' W 075°33'0 0.0
2018-Jul-15 07:59N 39°32' W 075°33'0 0.0
2018-Jul-15 07:29N 39°32' W 075°33'0 0.3
2018-Jul-15 06:59N 39°33' W 075°33'0 0.1
2018-Jul-15 06:29N 39°33' W 075°33'0 0.1
2018-Jul-15 05:59N 39°33' W 075°33'0 0.0
2018-Jul-15 05:29N 39°33' W 075°33'0 0.0
2018-Jul-15 04:59N 39°33' W 075°33'0 0.0
2018-Jul-15 04:29N 39°33' W 075°33'0 0.0
2018-Jul-15 03:59N 39°33' W 075°33'0 0.0
2018-Jul-15 03:29N 39°33' W 075°33'0 0.0
2018-Jul-15 02:59N 39°33' W 075°33'0 0.0
2018-Jul-15 02:29N 39°33' W 075°33'0 0.1
2018-Jul-15 01:59N 39°33' W 075°33'0 0.0
2018-Jul-15 01:29N 39°33' W 075°33'0 0.3
2018-Jul-15 00:59N 39°32' W 075°33'0 0.0
2018-Jul-15 00:29N 39°32' W 075°33'0 0.0
2018-Jul-14 23:59N 39°32' W 075°33'0 0.0
2018-Jul-14 23:29N 39°32' W 075°33'0 0.0
2018-Jul-14 22:59N 39°32' W 075°33'0 0.0
2018-Jul-14 22:29N 39°32' W 075°33'0 0.0
2018-Jul-14 21:59N 39°32' W 075°33'0 0.0
2018-Jul-14 21:29N 39°32' W 075°33'0 0.0
2018-Jul-14 20:59N 39°32' W 075°33'0 0.0
2018-Jul-14 20:29N 39°32' W 075°33'0 0.0
2018-Jul-14 19:59N 39°32' W 075°33'0 0.0
2018-Jul-14 19:29N 39°32' W 075°33'0 0.1
2018-Jul-14 19:00N 39°32' W 075°33'3 6.8
2018-Jul-14 18:30N 39°36' W 075°34'4 7.6
2018-Jul-14 18:00N 39°39' W 075°33'4 7.8
2018-Jul-14 17:30N 39°43' W 075°30'0 0.2
2018-Jul-14 16:59N 39°43' W 075°30'0 0.0
2018-Jul-14 16:29N 39°43' W 075°30'0 0.0
2018-Jul-14 15:59N 39°43' W 075°30'0 0.0
2018-Jul-14 15:29N 39°43' W 075°30'0 0.0
2018-Jul-14 14:59N 39°43' W 075°30'0 0.0
2018-Jul-14 14:29N 39°43' W 075°30'0 0.2
2018-Jul-14 13:29N 39°43' W 075°30'0 0.0
2018-Jul-14 12:59N 39°43' W 075°30'0 0.0
2018-Jul-14 12:29N 39°43' W 075°30'0 0.0
2018-Jul-14 11:56N 39°43' W 075°30'0 0.0
2018-Jul-14 11:26N 39°43' W 075°30'0 0.0
2018-Jul-14 10:59N 39°43' W 075°30'0 0.0
2018-Jul-14 10:29N 39°43' W 075°30'0 0.0
2018-Jul-14 09:59N 39°43' W 075°30'0 0.0
2018-Jul-14 09:29N 39°43' W 075°30'0 0.0
2018-Jul-14 08:59N 39°43' W 075°30'0 0.0
2018-Jul-14 08:29N 39°43' W 075°30'0 0.0
2018-Jul-14 07:59N 39°43' W 075°30'0 0.2
2018-Jul-14 07:29N 39°43' W 075°30'0 0.2
2018-Jul-14 06:59N 39°43' W 075°30'0 0.1
2018-Jul-14 06:29N 39°43' W 075°30'0 0.0
2018-Jul-14 05:59N 39°43' W 075°30'0 0.0
2018-Jul-14 05:29N 39°43' W 075°30'0 0.0
2018-Jul-14 04:59N 39°43' W 075°30'0 0.0
2018-Jul-14 04:29N 39°43' W 075°30'0 0.0
2018-Jul-14 03:59N 39°43' W 075°30'0 0.0
2018-Jul-14 03:29N 39°43' W 075°30'0 0.0
2018-Jul-14 02:59N 39°43' W 075°30'0 0.0
2018-Jul-14 02:29N 39°43' W 075°30'0 0.0
2018-Jul-14 01:59N 39°43' W 075°30'0 0.0
2018-Jul-14 01:29N 39°43' W 075°30'0 0.0
2018-Jul-14 00:59N 39°43' W 075°30'0 0.3
2018-Jul-14 00:29N 39°43' W 075°30'0 0.1
2018-Jul-13 23:59N 39°43' W 075°30'0 0.0
2018-Jul-13 23:29N 39°43' W 075°30'0 0.0
2018-Jul-13 22:59N 39°43' W 075°30'0 0.0
2018-Jul-13 22:29N 39°43' W 075°30'0 0.0
2018-Jul-13 21:59N 39°43' W 075°30'0 0.0
2018-Jul-13 21:29N 39°43' W 075°30'0 0.0
2018-Jul-13 20:59N 39°43' W 075°30'0 0.0
2018-Jul-13 20:29N 39°43' W 075°30'0 0.0
2018-Jul-13 19:59N 39°43' W 075°30'0 0.2
2018-Jul-13 19:29N 39°43' W 075°30'0 0.2
2018-Jul-13 18:59N 39°43' W 075°30'0 0.1
2018-Jul-13 18:29N 39°43' W 075°30'0 0.0
2018-Jul-13 17:59N 39°43' W 075°30'0 0.0
2018-Jul-13 17:29N 39°43' W 075°30'0 0.0
2018-Jul-13 16:59N 39°43' W 075°30'0 0.0
2018-Jul-13 16:29N 39°43' W 075°30'0 0.0
2018-Jul-13 15:59N 39°43' W 075°30'0 0.0
2018-Jul-13 15:29N 39°43' W 075°30'0 0.0
2018-Jul-13 14:59N 39°43' W 075°30'0 0.0
2018-Jul-13 14:29N 39°43' W 075°30'0 0.1
2018-Jul-13 13:29N 39°43' W 075°30'0 0.2
2018-Jul-13 12:59N 39°43' W 075°30'0 0.2
2018-Jul-13 12:29N 39°43' W 075°30'0 0.0
2018-Jul-13 11:59N 39°43' W 075°30'0 0.0
2018-Jul-13 11:29N 39°43' W 075°30'0 0.0
2018-Jul-13 10:44N 39°43' W 075°30'0 0.0
2018-Jul-13 10:29N 39°43' W 075°30'0 0.0
2018-Jul-13 09:59N 39°43' W 075°30'0 0.0
2018-Jul-13 09:26N 39°43' W 075°30'0 0.0
2018-Jul-13 08:59N 39°43' W 075°30'0 0.0
2018-Jul-13 08:29N 39°43' W 075°30'1 1.3
2018-Jul-13 08:00N 39°42' W 075°31'3 6.9
2018-Jul-13 07:30N 39°39' W 075°33'3 6.8
2018-Jul-13 07:00N 39°36' W 075°34'3 5.2
2018-Jul-13 06:30N 39°33' W 075°35'4 7.4
2018-Jul-13 06:00N 39°33' W 075°40'4 7.1
2018-Jul-13 05:30N 39°32' W 075°44'3 6.8
2018-Jul-13 05:00N 39°32' W 075°49'3 5.5
2018-Jul-13 04:30N 39°32' W 075°52'4 7.6
2018-Jul-13 04:00N 39°29' W 075°56'4 8.5
2018-Jul-13 03:30N 39°26' W 076°00'4 9.0
2018-Jul-13 03:00N 39°23' W 076°04'5 9.3
2018-Jul-13 02:28N 39°21' W 076°10'4 9.1
2018-Jul-13 02:00N 39°18' W 076°14'5 9.5
2018-Jul-13 01:30N 39°13' W 076°15'6 8.9
2018-Jul-13 00:50N 39°09' W 076°21'3 9.4
2018-Jul-13 00:29N 39°10' W 076°24'5 9.5
2018-Jul-13 00:00N 39°12' W 076°30'3 7.0
2018-Jul-12 23:30N 39°13' W 076°34'0 0.1
2018-Jul-12 23:00N 39°14' W 076°34'0 0.0
2018-Jul-12 22:26N 39°13' W 076°34'0 0.0
2018-Jul-12 21:56N 39°13' W 076°34'0 0.0
2018-Jul-12 21:26N 39°13' W 076°34'0 0.0
2018-Jul-12 20:56N 39°13' W 076°34'0 0.0
2018-Jul-12 20:29N 39°13' W 076°34'0 0.0
2018-Jul-12 19:59N 39°13' W 076°34'0 0.0
2018-Jul-12 19:29N 39°13' W 076°34'0 0.0
2018-Jul-12 18:59N 39°13' W 076°34'0 0.0
2018-Jul-12 18:29N 39°13' W 076°34'0 0.0
2018-Jul-12 17:59N 39°13' W 076°34'0 0.0
2018-Jul-12 17:29N 39°13' W 076°34'0 0.0
2018-Jul-12 16:59N 39°13' W 076°34'0 0.0
2018-Jul-12 16:29N 39°13' W 076°34'0 0.0
2018-Jul-12 15:59N 39°13' W 076°34'0 0.0
2018-Jul-12 15:29N 39°13' W 076°34'0 0.0
2018-Jul-12 14:59N 39°13' W 076°34'0 0.0
2018-Jul-12 14:29N 39°13' W 076°34'0 0.0
2018-Jul-12 13:59N 39°13' W 076°34'0 0.0
2018-Jul-12 13:29N 39°13' W 076°34'0 0.0
2018-Jul-12 12:56N 39°13' W 076°34'0 0.0
2018-Jul-12 12:26N 39°13' W 076°34'0 0.0
2018-Jul-12 11:53N 39°13' W 076°34'0 0.0
2018-Jul-12 11:29N 39°13' W 076°34'0 0.0
2018-Jul-12 10:59N 39°13' W 076°34'0 0.0
2018-Jul-12 10:29N 39°13' W 076°34'0 0.0
2018-Jul-12 09:59N 39°13' W 076°34'0 0.0
2018-Jul-12 09:29N 39°13' W 076°34'0 0.0
2018-Jul-12 08:59N 39°13' W 076°34'0 0.0
2018-Jul-12 08:29N 39°13' W 076°34'0 0.0
2018-Jul-12 07:59N 39°13' W 076°34'0 0.0
2018-Jul-12 07:29N 39°13' W 076°34'0 0.0
2018-Jul-12 06:59N 39°13' W 076°34'0 0.0
2018-Jul-12 06:29N 39°13' W 076°34'0 0.0
2018-Jul-12 05:53N 39°13' W 076°34'0 0.0
2018-Jul-12 05:29N 39°13' W 076°34'0 0.0
2018-Jul-12 04:59N 39°13' W 076°34'0 0.0
2018-Jul-12 04:29N 39°13' W 076°34'0 0.0
2018-Jul-12 03:59N 39°14' W 076°34'0 0.9
2018-Jul-12 03:30N 39°13' W 076°34'1 1.0
2018-Jul-12 03:00N 39°13' W 076°35'0 0.0
2018-Jul-12 02:31N 39°13' W 076°35'0 0.0
2018-Jul-12 02:01N 39°13' W 076°35'0 0.1
2018-Jul-12 01:29N 39°13' W 076°35'0 0.0
2018-Jul-12 00:59N 39°13' W 076°35'0 0.0
2018-Jul-12 00:29N 39°13' W 076°35'0 0.0
2018-Jul-11 23:59N 39°13' W 076°35'0 0.0
2018-Jul-11 23:29N 39°13' W 076°35'0 0.0
2018-Jul-11 22:56N 39°13' W 076°35'0 0.0
2018-Jul-11 22:29N 39°13' W 076°35'0 0.0
2018-Jul-11 21:59N 39°13' W 076°35'0 0.0
2018-Jul-11 21:29N 39°13' W 076°35'0 0.0
2018-Jul-11 20:59N 39°13' W 076°35'0 0.0
2018-Jul-11 20:29N 39°13' W 076°35'0 0.0
2018-Jul-11 19:59N 39°13' W 076°35'0 0.0
2018-Jul-11 19:29N 39°13' W 076°35'0 0.0
2018-Jul-11 18:56N 39°13' W 076°35'0 0.0
2018-Jul-11 18:29N 39°13' W 076°35'0 0.0
2018-Jul-11 17:59N 39°13' W 076°35'0 0.0
2018-Jul-11 17:23N 39°13' W 076°35'0 0.0
2018-Jul-11 16:59N 39°13' W 076°35'0 0.0
2018-Jul-11 16:29N 39°13' W 076°35'0 0.0
2018-Jul-11 15:56N 39°13' W 076°35'0 0.0
2018-Jul-11 15:29N 39°13' W 076°35'1 1.1
2018-Jul-11 15:00N 39°13' W 076°34'2 4.8
2018-Jul-11 14:30N 39°15' W 076°33'0 0.0
2018-Jul-11 14:00N 39°15' W 076°33'0 0.0
2018-Jul-11 13:30N 39°15' W 076°33'0 0.1
2018-Jul-11 13:00N 39°15' W 076°33'1 2.7
2018-Jul-11 12:31N 39°16' W 076°35'0 0.2
2018-Jul-11 12:00N 39°16' W 076°35'0 0.0
2018-Jul-11 11:30N 39°16' W 076°35'0 0.0
2018-Jul-11 11:00N 39°16' W 076°35'0 0.4
2018-Jul-11 10:30N 39°16' W 076°35'3 5.8
2018-Jul-11 10:00N 39°13' W 076°34'1 1.5
2018-Jul-11 09:30N 39°13' W 076°35'0 0.0
2018-Jul-11 09:00N 39°13' W 076°35'0 0.0
2018-Jul-11 08:30N 39°13' W 076°35'0 0.0
2018-Jul-11 08:00N 39°13' W 076°35'0 0.0
2018-Jul-11 07:30N 39°13' W 076°35'0 0.0
2018-Jul-11 07:00N 39°13' W 076°35'0 0.0
2018-Jul-11 06:30N 39°13' W 076°35'0 0.0
2018-Jul-11 06:00N 39°13' W 076°35'0 0.0
2018-Jul-11 05:30N 39°13' W 076°35'0 0.0
2018-Jul-11 05:00N 39°13' W 076°35'0 0.0
2018-Jul-11 04:30N 39°13' W 076°35'0 0.0
2018-Jul-11 04:00N 39°13' W 076°35'0 0.0
2018-Jul-11 03:30N 39°13' W 076°35'0 0.0
2018-Jul-11 03:00N 39°13' W 076°35'0 0.0
2018-Jul-11 02:30N 39°13' W 076°35'0 0.0
2018-Jul-11 02:00N 39°13' W 076°35'0 0.1
2018-Jul-11 01:30N 39°13' W 076°35'0 0.2
2018-Jul-11 01:00N 39°13' W 076°35'2 4.8
2018-Jul-11 00:30N 39°13' W 076°32'5 9.4
2018-Jul-11 00:00N 39°11' W 076°26'5 9.7
2018-Jul-10 23:30N 39°09' W 076°20'5 9.0
2018-Jul-10 22:59N 39°12' W 076°16'11 8.7
2018-Jul-10 21:43N 39°22' W 076°09'2 8.9
2018-Jul-10 21:30N 39°23' W 076°07'4 8.9
2018-Jul-10 21:00N 39°25' W 076°02'4 8.5
2018-Jul-10 20:30N 39°28' W 075°58'4 8.3
2018-Jul-10 20:00N 39°31' W 075°54'3 6.1
2018-Jul-10 19:30N 39°32' W 075°50'3 6.1
2018-Jul-10 19:00N 39°32' W 075°46'4 7.9
2018-Jul-10 18:31N 39°33' W 075°41'4 8.1
2018-Jul-10 18:00N 39°33' W 075°36'2 3.6
2018-Jul-10 17:30N 39°35' W 075°34'1 2.1
2018-Jul-10 17:00N 39°35' W 075°35'0 0.0
2018-Jul-10 16:30N 39°35' W 075°35'0 0.0
2018-Jul-10 15:58N 39°35' W 075°35'0 0.0
2018-Jul-10 15:28N 39°35' W 075°35'0 0.0
2018-Jul-10 14:58N 39°35' W 075°35'0 0.0
2018-Jul-10 14:28N 39°35' W 075°35'0 0.0
2018-Jul-10 13:58N 39°35' W 075°35'0 0.0
2018-Jul-10 13:28N 39°35' W 075°35'0 0.0
2018-Jul-10 12:58N 39°35' W 075°35'0 0.0
2018-Jul-10 12:28N 39°35' W 075°35'0 0.0
2018-Jul-10 11:58N 39°35' W 075°35'0 0.0
2018-Jul-10 11:28N 39°35' W 075°35'0 0.0
2018-Jul-10 10:58N 39°35' W 075°35'0 0.0
2018-Jul-10 10:28N 39°35' W 075°35'0 0.0
2018-Jul-10 09:58N 39°35' W 075°35'0 0.0
2018-Jul-10 09:28N 39°35' W 075°35'0 0.0
2018-Jul-10 08:58N 39°35' W 075°35'0 0.0
2018-Jul-10 08:28N 39°35' W 075°35'0 0.0
2018-Jul-10 07:58N 39°35' W 075°35'0 0.0
2018-Jul-10 07:28N 39°35' W 075°35'0 0.0
2018-Jul-10 06:58N 39°35' W 075°35'0 0.0
2018-Jul-10 06:28N 39°35' W 075°35'0 0.0
2018-Jul-10 05:58N 39°35' W 075°35'0 0.0
2018-Jul-10 05:28N 39°35' W 075°35'0 0.0
2018-Jul-10 04:58N 39°35' W 075°35'0 0.0
2018-Jul-10 04:28N 39°35' W 075°35'0 0.0
2018-Jul-10 03:58N 39°35' W 075°35'0 0.0
2018-Jul-10 03:28N 39°35' W 075°35'0 0.0
2018-Jul-10 02:58N 39°35' W 075°35'  
Track history (hours):
 
Tides and Currents Weather Stations Pressure Air Temp Water Temp Dewpoint Dewpoint Depression Visibility Wind Speed Wind Dir Waves Ship Positions

Linda Moran

Owner: MORAN TOWING CORP., NEW CANAAN, CT. More information available from US FCC via Universal Licensing System and Coast Guard Vessel Documentation Center.

Last reported at 2018-Jul-20 02:30 UTC. Time now 2018-Jul-20 02:46 UTC.
Position N 39°33' W 075°33'.

Length 156 m; draft 7.6 m.

Type: . MMSI: 367349860.

Date/timePositionNaut miles runAvg speedWind from/ knotsBaromVisibWave heightAir tempDewpointWater temp
2018-Jul-20 02:30N 39°33' W 075°33'0 0.0
2018-Jul-20 02:00N 39°33' W 075°33'0 0.0
2018-Jul-20 01:30N 39°33' W 075°33'0 0.0
2018-Jul-20 01:00N 39°33' W 075°33'2 3.1
2018-Jul-20 00:30N 39°34' W 075°34'2 3.4
2018-Jul-20 00:00N 39°35' W 075°36'0 0.0
2018-Jul-19 23:28N 39°35' W 075°36'0 0.0
2018-Jul-19 22:58N 39°35' W 075°36'0 0.0
2018-Jul-19 22:28N 39°35' W 075°36'0 0.0
2018-Jul-19 21:58N 39°35' W 075°36'0 0.0
2018-Jul-19 21:28N 39°35' W 075°36'0 0.0
2018-Jul-19 20:58N 39°35' W 075°36'0 0.0
2018-Jul-19 20:28N 39°35' W 075°36'0 0.0
2018-Jul-19 19:58N 39°35' W 075°36'0 0.0
2018-Jul-19 19:28N 39°35' W 075°36'0 0.0
2018-Jul-19 18:58N 39°35' W 075°36'0 0.0
2018-Jul-19 18:28N 39°35' W 075°36'0 0.0
2018-Jul-19 17:55N 39°35' W 075°36'0 0.0
2018-Jul-19 16:25N 39°35' W 075°36'0 0.0
2018-Jul-19 15:58N 39°35' W 075°36'0 0.0
2018-Jul-19 15:28N 39°35' W 075°36'0 0.0
2018-Jul-19 14:58N 39°35' W 075°36'0 0.0
2018-Jul-19 13:58N 39°35' W 075°36'0 0.0
2018-Jul-19 13:28N 39°35' W 075°36'0 0.0
2018-Jul-19 12:58N 39°35' W 075°36'0 0.0
2018-Jul-19 12:28N 39°35' W 075°36'0 0.0
2018-Jul-19 11:58N 39°35' W 075°36'0 0.0
2018-Jul-19 11:28N 39°35' W 075°36'0 0.0
2018-Jul-19 10:58N 39°35' W 075°36'0 0.0
2018-Jul-19 10:28N 39°35' W 075°36'0 0.0
2018-Jul-19 09:58N 39°35' W 075°36'0 0.0
2018-Jul-19 09:28N 39°35' W 075°36'0 0.0
2018-Jul-19 08:58N 39°35' W 075°36'0 0.0
2018-Jul-19 08:28N 39°35' W 075°36'0 0.0
2018-Jul-19 07:58N 39°35' W 075°36'0 0.0
2018-Jul-19 07:28N 39°35' W 075°36'0 0.0
2018-Jul-19 06:58N 39°35' W 075°36'0 0.0
2018-Jul-19 06:28N 39°35' W 075°36'0 0.0
2018-Jul-19 05:58N 39°35' W 075°36'0 0.0
2018-Jul-19 05:28N 39°35' W 075°36'0 0.0
2018-Jul-19 04:58N 39°35' W 075°36'0 0.0
2018-Jul-19 04:28N 39°35' W 075°36'0 0.0
2018-Jul-19 03:58N 39°35' W 075°36'0 0.0
2018-Jul-19 03:28N 39°35' W 075°36'0 0.0
2018-Jul-19 02:58N 39°35' W 075°36'0 0.0
2018-Jul-19 02:30N 39°35' W 075°36'2 4.0
2018-Jul-19 02:00N 39°34' W 075°33'4 7.2
2018-Jul-19 01:30N 39°37' W 075°35'611.8
2018-Jul-19 01:00N 39°42' W 075°31'611.1
2018-Jul-19 00:30N 39°47' W 075°27'510.8
2018-Jul-19 00:00N 39°50' W 075°21'5 9.2
2018-Jul-18 23:30N 39°51' W 075°15'0 0.6
2018-Jul-18 22:58N 39°51' W 075°15'0 0.0
2018-Jul-18 22:28N 39°51' W 075°15'0 0.0
2018-Jul-18 21:58N 39°51' W 075°15'0 0.0
2018-Jul-18 21:28N 39°51' W 075°15'0 0.0
2018-Jul-18 20:58N 39°51' W 075°15'0 0.0
2018-Jul-18 20:28N 39°51' W 075°15'0 0.0
2018-Jul-18 19:58N 39°51' W 075°15'0 0.0
2018-Jul-18 19:28N 39°51' W 075°15'0 0.0
2018-Jul-18 18:58N 39°51' W 075°15'0 0.0
2018-Jul-18 18:28N 39°51' W 075°15'0 0.0
2018-Jul-18 17:58N 39°51' W 075°15'0 0.0
2018-Jul-18 17:28N 39°51' W 075°15'0 0.0
2018-Jul-18 16:58N 39°51' W 075°15'0 0.0
2018-Jul-18 16:28N 39°51' W 075°15'0 0.0
2018-Jul-18 15:58N 39°51' W 075°15'0 0.0
2018-Jul-18 15:28N 39°51' W 075°15'0 0.0
2018-Jul-18 14:58N 39°51' W 075°15'0 0.0
2018-Jul-18 14:28N 39°51' W 075°15'0 0.0
2018-Jul-18 13:28N 39°51' W 075°15'0 0.0
2018-Jul-18 12:58N 39°51' W 075°15'0 0.0
2018-Jul-18 12:28N 39°51' W 075°15'0 0.0
2018-Jul-18 11:58N 39°51' W 075°15'0 0.0
2018-Jul-18 11:28N 39°51' W 075°15'0 0.0
2018-Jul-18 10:28N 39°51' W 075°15'0 0.0
2018-Jul-18 09:58N 39°51' W 075°15'0 0.0
2018-Jul-18 09:28N 39°51' W 075°15'0 0.0
2018-Jul-18 08:58N 39°51' W 075°15'0 0.0
2018-Jul-18 08:28N 39°51' W 075°15'0 0.0
2018-Jul-18 08:00N 39°51' W 075°15'2 4.5
2018-Jul-18 07:30N 39°52' W 075°13'4 7.2
2018-Jul-18 07:00N 39°54' W 075°08'4 7.9
2018-Jul-18 06:30N 39°58' W 075°08'3 6.3
2018-Jul-18 06:01N 39°59' W 075°04'0 0.0
2018-Jul-18 05:30N 39°59' W 075°04'0 0.0
2018-Jul-18 05:00N 39°59' W 075°04'0 0.0
2018-Jul-18 04:30N 39°59' W 075°04'0 0.0
2018-Jul-18 04:00N 39°59' W 075°04'0 0.0
2018-Jul-18 03:28N 39°59' W 075°04'0 0.0
2018-Jul-18 02:58N 39°59' W 075°04'0 0.0
2018-Jul-18 02:28N 39°59' W 075°04'0 0.0
2018-Jul-18 01:58N 39°59' W 075°04'0 0.0
2018-Jul-18 01:28N 39°59' W 075°04'0 0.0
2018-Jul-18 00:58N 39°59' W 075°04'0 0.0
2018-Jul-18 00:28N 39°59' W 075°04'0 0.0
2018-Jul-17 23:58N 39°59' W 075°04'0 0.0
2018-Jul-17 23:28N 39°59' W 075°04'0 0.0
2018-Jul-17 22:58N 39°59' W 075°04'0 0.0
2018-Jul-17 22:28N 39°59' W 075°04'0 0.0
2018-Jul-17 21:58N 39°59' W 075°04'0 0.0
2018-Jul-17 21:28N 39°59' W 075°04'0 0.0
2018-Jul-17 20:58N 39°59' W 075°04'0 0.0
2018-Jul-17 20:28N 39°59' W 075°04'0 0.0
2018-Jul-17 19:58N 39°59' W 075°04'0 0.0
2018-Jul-17 19:28N 39°59' W 075°04'0 0.0
2018-Jul-17 18:58N 39°59' W 075°04'0 0.0
2018-Jul-17 18:28N 39°59' W 075°04'0 0.0
2018-Jul-17 17:58N 39°59' W 075°04'0 0.0
2018-Jul-17 17:28N 39°59' W 075°04'0 0.0
2018-Jul-17 16:58N 39°59' W 075°04'0 0.0
2018-Jul-17 16:28N 39°59' W 075°04'0 0.0
2018-Jul-17 15:55N 39°59' W 075°04'0 0.0
2018-Jul-17 15:28N 39°59' W 075°04'0 0.0
2018-Jul-17 14:58N 39°59' W 075°04'0 0.0
2018-Jul-17 14:28N 39°59' W 075°04'0 0.0
2018-Jul-17 13:58N 39°59' W 075°04'0 0.0
2018-Jul-17 13:25N 39°59' W 075°04'0 0.0
2018-Jul-17 12:58N 39°59' W 075°04'0 0.0
2018-Jul-17 12:28N 39°59' W 075°04'0 0.0
2018-Jul-17 11:58N 39°59' W 075°04'0 0.0
2018-Jul-17 11:28N 39°59' W 075°04'0 0.0
2018-Jul-17 10:58N 39°59' W 075°04'0 0.0
2018-Jul-17 10:28N 39°59' W 075°04'0 0.0
2018-Jul-17 09:58N 39°59' W 075°04'0 0.0
2018-Jul-17 09:28N 39°59' W 075°04'0 0.0
2018-Jul-17 08:58N 39°59' W 075°04'0 0.0
2018-Jul-17 08:28N 39°59' W 075°04'0 0.0
2018-Jul-17 07:55N 39°59' W 075°04'0 0.0
2018-Jul-17 07:28N 39°59' W 075°04'0 0.0
2018-Jul-17 06:58N 39°59' W 075°04'0 0.0
2018-Jul-17 06:28N 39°59' W 075°04'0 0.0
2018-Jul-17 05:58N 39°59' W 075°04'0 1.0
2018-Jul-17 05:30N 39°59' W 075°05'4 7.0
2018-Jul-17 05:00N 39°56' W 075°08'4 7.4
2018-Jul-17 04:30N 39°53' W 075°10'4 8.7
2018-Jul-17 04:01N 39°51' W 075°15'4 8.4
2018-Jul-17 03:31N 39°51' W 075°20'4 8.2
2018-Jul-17 03:00N 39°48' W 075°25'4 8.1
2018-Jul-17 02:30N 39°46' W 075°29'4 8.0
2018-Jul-17 02:00N 39°42' W 075°31'4 7.7
2018-Jul-17 01:30N 39°39' W 075°33'3 6.7
2018-Jul-17 01:00N 39°35' W 075°34'1 2.3
2018-Jul-17 00:31N 39°35' W 075°35'0 0.4
2018-Jul-16 23:31N 39°35' W 075°36'0 0.0
2018-Jul-16 22:59N 39°35' W 075°36'0 0.0
2018-Jul-16 22:29N 39°35' W 075°36'0 0.0
2018-Jul-16 21:59N 39°35' W 075°36'0 0.0
2018-Jul-16 21:29N 39°35' W 075°36'0 0.0
2018-Jul-16 20:59N 39°35' W 075°36'0 0.0
2018-Jul-16 20:29N 39°35' W 075°36'0 0.0
2018-Jul-16 19:59N 39°35' W 075°36'0 0.0
2018-Jul-16 19:29N 39°35' W 075°36'0 0.0
2018-Jul-16 18:59N 39°35' W 075°36'0 0.0
2018-Jul-16 18:29N 39°35' W 075°36'0 0.0
2018-Jul-16 17:59N 39°35' W 075°36'0 0.0
2018-Jul-16 17:29N 39°35' W 075°36'0 0.0
2018-Jul-16 16:59N 39°35' W 075°36'0 0.0
2018-Jul-16 16:29N 39°35' W 075°36'0 0.0
2018-Jul-16 15:59N 39°35' W 075°36'0 0.0
2018-Jul-16 15:29N 39°35' W 075°36'0 0.0
2018-Jul-16 14:59N 39°35' W 075°36'0 0.0
2018-Jul-16 14:29N 39°35' W 075°36'0 0.0
2018-Jul-16 13:59N 39°35' W 075°36'0 0.0
2018-Jul-16 13:29N 39°35' W 075°36'0 0.0
2018-Jul-16 12:59N 39°35' W 075°36'0 0.0
2018-Jul-16 12:29N 39°35' W 075°36'0 0.0
2018-Jul-16 11:59N 39°35' W 075°36'0 0.0
2018-Jul-16 11:29N 39°35' W 075°36'0 0.0
2018-Jul-16 10:59N 39°35' W 075°36'0 0.0
2018-Jul-16 10:29N 39°35' W 075°36'0 0.0
2018-Jul-16 09:59N 39°35' W 075°36'0 0.0
2018-Jul-16 09:29N 39°35' W 075°36'0 0.0
2018-Jul-16 08:59N 39°35' W 075°36'0 0.0
2018-Jul-16 08:29N 39°35' W 075°36'0 0.0
2018-Jul-16 07:59N 39°35' W 075°36'0 0.0
2018-Jul-16 07:29N 39°35' W 075°36'0 0.0
2018-Jul-16 06:59N 39°35' W 075°36'0 0.0
2018-Jul-16 06:29N 39°35' W 075°36'0 0.0
2018-Jul-16 05:59N 39°35' W 075°36'0 0.0
2018-Jul-16 05:29N 39°35' W 075°36'0 0.0
2018-Jul-16 04:59N 39°35' W 075°36'0 0.0
2018-Jul-16 04:29N 39°35' W 075°36'0 0.0
2018-Jul-16 03:59N 39°35' W 075°36'0 0.0
2018-Jul-16 03:29N 39°35' W 075°36'0 0.0
2018-Jul-16 02:59N 39°35' W 075°36'0 0.0
2018-Jul-16 02:29N 39°35' W 075°36'0 0.0
2018-Jul-16 01:59N 39°35' W 075°36'0 0.0
2018-Jul-16 01:29N 39°35' W 075°36'0 0.0
2018-Jul-16 00:56N 39°35' W 075°36'0 0.0
2018-Jul-16 00:29N 39°35' W 075°36'0 0.0
2018-Jul-16 00:00N 39°35' W 075°36'1 2.8
2018-Jul-15 23:30N 39°34' W 075°34'2 4.2
2018-Jul-15 22:59N 39°32' W 075°33'0 0.0
2018-Jul-15 22:29N 39°32' W 075°33'0 0.0
2018-Jul-15 21:59N 39°32' W 075°33'0 0.0
2018-Jul-15 21:29N 39°32' W 075°33'0 0.0
2018-Jul-15 20:59N 39°32' W 075°33'0 0.0
2018-Jul-15 20:29N 39°32' W 075°33'0 0.1
2018-Jul-15 19:59N 39°32' W 075°33'0 0.3
2018-Jul-15 19:29N 39°33' W 075°33'0 0.1
2018-Jul-15 18:59N 39°33' W 075°33'0 0.0
2018-Jul-15 18:29N 39°33' W 075°33'0 0.0
2018-Jul-15 17:59N 39°33' W 075°33'0 0.0
2018-Jul-15 17:29N 39°33' W 075°33'0 0.0
2018-Jul-15 16:59N 39°33' W 075°33'0 0.0
2018-Jul-15 16:29N 39°33' W 075°33'0 0.0
2018-Jul-15 15:59N 39°33' W 075°33'0 0.0
2018-Jul-15 15:29N 39°33' W 075°33'0 0.0
2018-Jul-15 14:59N 39°33' W 075°33'0 0.1
2018-Jul-15 14:23N 39°33' W 075°33'0 0.3
2018-Jul-15 13:59N 39°32' W 075°33'0 0.1
2018-Jul-15 13:29N 39°32' W 075°33'0 0.0
2018-Jul-15 12:59N 39°32' W 075°33'0 0.0
2018-Jul-15 12:29N 39°32' W 075°33'0 0.0
2018-Jul-15 11:59N 39°32' W 075°33'0 0.0
2018-Jul-15 11:29N 39°32' W 075°33'0 0.0
2018-Jul-15 10:59N 39°32' W 075°33'0 0.0
2018-Jul-15 10:29N 39°32' W 075°33'0 0.0
2018-Jul-15 09:59N 39°32' W 075°33'0 0.0
2018-Jul-15 09:29N 39°32' W 075°33'0 0.0
2018-Jul-15 08:59N 39°32' W 075°33'0 0.0
2018-Jul-15 08:29N 39°32' W 075°33'0 0.0
2018-Jul-15 07:59N 39°32' W 075°33'0 0.0
2018-Jul-15 07:29N 39°32' W 075°33'0 0.3
2018-Jul-15 06:59N 39°33' W 075°33'0 0.1
2018-Jul-15 06:29N 39°33' W 075°33'0 0.1
2018-Jul-15 05:59N 39°33' W 075°33'0 0.0
2018-Jul-15 05:29N 39°33' W 075°33'0 0.0
2018-Jul-15 04:59N 39°33' W 075°33'0 0.0
2018-Jul-15 04:29N 39°33' W 075°33'0 0.0
2018-Jul-15 03:59N 39°33' W 075°33'0 0.0
2018-Jul-15 03:29N 39°33' W 075°33'0 0.0
2018-Jul-15 02:59N 39°33' W 075°33'0 0.0
2018-Jul-15 02:29N 39°33' W 075°33'0 0.1
2018-Jul-15 01:59N 39°33' W 075°33'0 0.0
2018-Jul-15 01:29N 39°33' W 075°33'0 0.3
2018-Jul-15 00:59N 39°32' W 075°33'0 0.0
2018-Jul-15 00:29N 39°32' W 075°33'0 0.0
2018-Jul-14 23:59N 39°32' W 075°33'0 0.0
2018-Jul-14 23:29N 39°32' W 075°33'0 0.0
2018-Jul-14 22:59N 39°32' W 075°33'0 0.0
2018-Jul-14 22:29N 39°32' W 075°33'0 0.0
2018-Jul-14 21:59N 39°32' W 075°33'0 0.0
2018-Jul-14 21:29N 39°32' W 075°33'0 0.0
2018-Jul-14 20:59N 39°32' W 075°33'0 0.0
2018-Jul-14 20:29N 39°32' W 075°33'0 0.0
2018-Jul-14 19:59N 39°32' W 075°33'0 0.0
2018-Jul-14 19:29N 39°32' W 075°33'0 0.1
2018-Jul-14 19:00N 39°32' W 075°33'3 6.8
2018-Jul-14 18:30N 39°36' W 075°34'4 7.6
2018-Jul-14 18:00N 39°39' W 075°33'4 7.8
2018-Jul-14 17:30N 39°43' W 075°30'0 0.2
2018-Jul-14 16:59N 39°43' W 075°30'0 0.0
2018-Jul-14 16:29N 39°43' W 075°30'0 0.0
2018-Jul-14 15:59N 39°43' W 075°30'0 0.0
2018-Jul-14 15:29N 39°43' W 075°30'0 0.0
2018-Jul-14 14:59N 39°43' W 075°30'0 0.0
2018-Jul-14 14:29N 39°43' W 075°30'0 0.2
2018-Jul-14 13:29N 39°43' W 075°30'0 0.0
2018-Jul-14 12:59N 39°43' W 075°30'0 0.0
2018-Jul-14 12:29N 39°43' W 075°30'0 0.0
2018-Jul-14 11:56N 39°43' W 075°30'0 0.0
2018-Jul-14 11:26N 39°43' W 075°30'0 0.0
2018-Jul-14 10:59N 39°43' W 075°30'0 0.0
2018-Jul-14 10:29N 39°43' W 075°30'0 0.0
2018-Jul-14 09:59N 39°43' W 075°30'0 0.0
2018-Jul-14 09:29N 39°43' W 075°30'0 0.0
2018-Jul-14 08:59N 39°43' W 075°30'0 0.0
2018-Jul-14 08:29N 39°43' W 075°30'0 0.0
2018-Jul-14 07:59N 39°43' W 075°30'0 0.2
2018-Jul-14 07:29N 39°43' W 075°30'0 0.2
2018-Jul-14 06:59N 39°43' W 075°30'0 0.1
2018-Jul-14 06:29N 39°43' W 075°30'0 0.0
2018-Jul-14 05:59N 39°43' W 075°30'0 0.0
2018-Jul-14 05:29N 39°43' W 075°30'0 0.0
2018-Jul-14 04:59N 39°43' W 075°30'0 0.0
2018-Jul-14 04:29N 39°43' W 075°30'0 0.0
2018-Jul-14 03:59N 39°43' W 075°30'0 0.0
2018-Jul-14 03:29N 39°43' W 075°30'0 0.0
2018-Jul-14 02:59N 39°43' W 075°30'0 0.0
2018-Jul-14 02:29N 39°43' W 075°30'0 0.0
2018-Jul-14 01:59N 39°43' W 075°30'0 0.0
2018-Jul-14 01:29N 39°43' W 075°30'0 0.0
2018-Jul-14 00:59N 39°43' W 075°30'0 0.3
2018-Jul-14 00:29N 39°43' W 075°30'0 0.1
2018-Jul-13 23:59N 39°43' W 075°30'0 0.0
2018-Jul-13 23:29N 39°43' W 075°30'0 0.0
2018-Jul-13 22:59N 39°43' W 075°30'0 0.0
2018-Jul-13 22:29N 39°43' W 075°30'0 0.0
2018-Jul-13 21:59N 39°43' W 075°30'0 0.0
2018-Jul-13 21:29N 39°43' W 075°30'0 0.0
2018-Jul-13 20:59N 39°43' W 075°30'0 0.0
2018-Jul-13 20:29N 39°43' W 075°30'0 0.0
2018-Jul-13 19:59N 39°43' W 075°30'0 0.2
2018-Jul-13 19:29N 39°43' W 075°30'0 0.2
2018-Jul-13 18:59N 39°43' W 075°30'0 0.1
2018-Jul-13 18:29N 39°43' W 075°30'0 0.0
2018-Jul-13 17:59N 39°43' W 075°30'0 0.0
2018-Jul-13 17:29N 39°43' W 075°30'0 0.0
2018-Jul-13 16:59N 39°43' W 075°30'0 0.0
2018-Jul-13 16:29N 39°43' W 075°30'0 0.0
2018-Jul-13 15:59N 39°43' W 075°30'0 0.0
2018-Jul-13 15:29N 39°43' W 075°30'0 0.0
2018-Jul-13 14:59N 39°43' W 075°30'0 0.0
2018-Jul-13 14:29N 39°43' W 075°30'0 0.1
2018-Jul-13 13:29N 39°43' W 075°30'0 0.2
2018-Jul-13 12:59N 39°43' W 075°30'0 0.2
2018-Jul-13 12:29N 39°43' W 075°30'0 0.0
2018-Jul-13 11:59N 39°43' W 075°30'0 0.0
2018-Jul-13 11:29N 39°43' W 075°30'0 0.0
2018-Jul-13 10:44N 39°43' W 075°30'0 0.0
2018-Jul-13 10:29N 39°43' W 075°30'0 0.0
2018-Jul-13 09:59N 39°43' W 075°30'0 0.0
2018-Jul-13 09:26N 39°43' W 075°30'0 0.0
2018-Jul-13 08:59N 39°43' W 075°30'0 0.0
2018-Jul-13 08:29N 39°43' W 075°30'1 1.3
2018-Jul-13 08:00N 39°42' W 075°31'3 6.9
2018-Jul-13 07:30N 39°39' W 075°33'3 6.8
2018-Jul-13 07:00N 39°36' W 075°34'3 5.2
2018-Jul-13 06:30N 39°33' W 075°35'4 7.4
2018-Jul-13 06:00N 39°33' W 075°40'4 7.1
2018-Jul-13 05:30N 39°32' W 075°44'3 6.8
2018-Jul-13 05:00N 39°32' W 075°49'3 5.5
2018-Jul-13 04:30N 39°32' W 075°52'4 7.6
2018-Jul-13 04:00N 39°29' W 075°56'4 8.5
2018-Jul-13 03:30N 39°26' W 076°00'4 9.0
2018-Jul-13 03:00N 39°23' W 076°04'5 9.3
2018-Jul-13 02:28N 39°21' W 076°10'4 9.1
2018-Jul-13 02:00N 39°18' W 076°14'5 9.5
2018-Jul-13 01:30N 39°13' W 076°15'6 8.9
2018-Jul-13 00:50N 39°09' W 076°21'3 9.4
2018-Jul-13 00:29N 39°10' W 076°24'5 9.5
2018-Jul-13 00:00N 39°12' W 076°30'3 7.0
2018-Jul-12 23:30N 39°13' W 076°34'0 0.1
2018-Jul-12 23:00N 39°14' W 076°34'0 0.0
2018-Jul-12 22:26N 39°13' W 076°34'0 0.0
2018-Jul-12 21:56N 39°13' W 076°34'0 0.0
2018-Jul-12 21:26N 39°13' W 076°34'0 0.0
2018-Jul-12 20:56N 39°13' W 076°34'0 0.0
2018-Jul-12 20:29N 39°13' W 076°34'0 0.0
2018-Jul-12 19:59N 39°13' W 076°34'0 0.0
2018-Jul-12 19:29N 39°13' W 076°34'0 0.0
2018-Jul-12 18:59N 39°13' W 076°34'0 0.0
2018-Jul-12 18:29N 39°13' W 076°34'0 0.0
2018-Jul-12 17:59N 39°13' W 076°34'0 0.0
2018-Jul-12 17:29N 39°13' W 076°34'0 0.0
2018-Jul-12 16:59N 39°13' W 076°34'0 0.0
2018-Jul-12 16:29N 39°13' W 076°34'0 0.0
2018-Jul-12 15:59N 39°13' W 076°34'0 0.0
2018-Jul-12 15:29N 39°13' W 076°34'0 0.0
2018-Jul-12 14:59N 39°13' W 076°34'0 0.0
2018-Jul-12 14:29N 39°13' W 076°34'0 0.0
2018-Jul-12 13:59N 39°13' W 076°34'0 0.0
2018-Jul-12 13:29N 39°13' W 076°34'0 0.0
2018-Jul-12 12:56N 39°13' W 076°34'0 0.0
2018-Jul-12 12:26N 39°13' W 076°34'0 0.0
2018-Jul-12 11:53N 39°13' W 076°34'0 0.0
2018-Jul-12 11:29N 39°13' W 076°34'0 0.0
2018-Jul-12 10:59N 39°13' W 076°34'0 0.0
2018-Jul-12 10:29N 39°13' W 076°34'0 0.0
2018-Jul-12 09:59N 39°13' W 076°34'0 0.0
2018-Jul-12 09:29N 39°13' W 076°34'0 0.0
2018-Jul-12 08:59N 39°13' W 076°34'0 0.0
2018-Jul-12 08:29N 39°13' W 076°34'0 0.0
2018-Jul-12 07:59N 39°13' W 076°34'0 0.0
2018-Jul-12 07:29N 39°13' W 076°34'0 0.0
2018-Jul-12 06:59N 39°13' W 076°34'0 0.0
2018-Jul-12 06:29N 39°13' W 076°34'0 0.0
2018-Jul-12 05:53N 39°13' W 076°34'0 0.0
2018-Jul-12 05:29N 39°13' W 076°34'0 0.0
2018-Jul-12 04:59N 39°13' W 076°34'0 0.0
2018-Jul-12 04:29N 39°13' W 076°34'0 0.0
2018-Jul-12 03:59N 39°14' W 076°34'0 0.9
2018-Jul-12 03:30N 39°13' W 076°34'1 1.0
2018-Jul-12 03:00N 39°13' W 076°35'0 0.0
2018-Jul-12 02:31N 39°13' W 076°35'0 0.0
2018-Jul-12 02:01N 39°13' W 076°35'0 0.1
2018-Jul-12 01:29N 39°13' W 076°35'0 0.0
2018-Jul-12 00:59N 39°13' W 076°35'0 0.0
2018-Jul-12 00:29N 39°13' W 076°35'0 0.0
2018-Jul-11 23:59N 39°13' W 076°35'0 0.0
2018-Jul-11 23:29N 39°13' W 076°35'0 0.0
2018-Jul-11 22:56N 39°13' W 076°35'0 0.0
2018-Jul-11 22:29N 39°13' W 076°35'0 0.0
2018-Jul-11 21:59N 39°13' W 076°35'0 0.0
2018-Jul-11 21:29N 39°13' W 076°35'0 0.0
2018-Jul-11 20:59N 39°13' W 076°35'0 0.0
2018-Jul-11 20:29N 39°13' W 076°35'0 0.0
2018-Jul-11 19:59N 39°13' W 076°35'0 0.0
2018-Jul-11 19:29N 39°13' W 076°35'0 0.0
2018-Jul-11 18:56N 39°13' W 076°35'0 0.0
2018-Jul-11 18:29N 39°13' W 076°35'0 0.0
2018-Jul-11 17:59N 39°13' W 076°35'0 0.0
2018-Jul-11 17:23N 39°13' W 076°35'0 0.0
2018-Jul-11 16:59N 39°13' W 076°35'0 0.0
2018-Jul-11 16:29N 39°13' W 076°35'0 0.0
2018-Jul-11 15:56N 39°13' W 076°35'0 0.0
2018-Jul-11 15:29N 39°13' W 076°35'1 1.1
2018-Jul-11 15:00N 39°13' W 076°34'2 4.8
2018-Jul-11 14:30N 39°15' W 076°33'0 0.0
2018-Jul-11 14:00N 39°15' W 076°33'0 0.0
2018-Jul-11 13:30N 39°15' W 076°33'0 0.1
2018-Jul-11 13:00N 39°15' W 076°33'1 2.7
2018-Jul-11 12:31N 39°16' W 076°35'0 0.2
2018-Jul-11 12:00N 39°16' W 076°35'0 0.0
2018-Jul-11 11:30N 39°16' W 076°35'0 0.0
2018-Jul-11 11:00N 39°16' W 076°35'0 0.4
2018-Jul-11 10:30N 39°16' W 076°35'3 5.8
2018-Jul-11 10:00N 39°13' W 076°34'1 1.5
2018-Jul-11 09:30N 39°13' W 076°35'0 0.0
2018-Jul-11 09:00N 39°13' W 076°35'0 0.0
2018-Jul-11 08:30N 39°13' W 076°35'0 0.0
2018-Jul-11 08:00N 39°13' W 076°35'0 0.0
2018-Jul-11 07:30N 39°13' W 076°35'0 0.0
2018-Jul-11 07:00N 39°13' W 076°35'0 0.0
2018-Jul-11 06:30N 39°13' W 076°35'0 0.0
2018-Jul-11 06:00N 39°13' W 076°35'0 0.0
2018-Jul-11 05:30N 39°13' W 076°35'0 0.0
2018-Jul-11 05:00N 39°13' W 076°35'0 0.0
2018-Jul-11 04:30N 39°13' W 076°35'0 0.0
2018-Jul-11 04:00N 39°13' W 076°35'0 0.0
2018-Jul-11 03:30N 39°13' W 076°35'0 0.0
2018-Jul-11 03:00N 39°13' W 076°35'0 0.0
2018-Jul-11 02:30N 39°13' W 076°35'0 0.0
2018-Jul-11 02:00N 39°13' W 076°35'0 0.1
2018-Jul-11 01:30N 39°13' W 076°35'0 0.2
2018-Jul-11 01:00N 39°13' W 076°35'2 4.8
2018-Jul-11 00:30N 39°13' W 076°32'5 9.4
2018-Jul-11 00:00N 39°11' W 076°26'5 9.7
2018-Jul-10 23:30N 39°09' W 076°20'5 9.0
2018-Jul-10 22:59N 39°12' W 076°16'11 8.7
2018-Jul-10 21:43N 39°22' W 076°09'2 8.9
2018-Jul-10 21:30N 39°23' W 076°07'4 8.9
2018-Jul-10 21:00N 39°25' W 076°02'4 8.5
2018-Jul-10 20:30N 39°28' W 075°58'4 8.3
2018-Jul-10 20:00N 39°31' W 075°54'3 6.1
2018-Jul-10 19:30N 39°32' W 075°50'3 6.1
2018-Jul-10 19:00N 39°32' W 075°46'4 7.9
2018-Jul-10 18:31N 39°33' W 075°41'4 8.1
2018-Jul-10 18:00N 39°33' W 075°36'2 3.6
2018-Jul-10 17:30N 39°35' W 075°34'1 2.1
2018-Jul-10 17:00N 39°35' W 075°35'0 0.0
2018-Jul-10 16:30N 39°35' W 075°35'0 0.0
2018-Jul-10 15:58N 39°35' W 075°35'0 0.0
2018-Jul-10 15:28N 39°35' W 075°35'0 0.0
2018-Jul-10 14:58N 39°35' W 075°35'0 0.0
2018-Jul-10 14:28N 39°35' W 075°35'0 0.0
2018-Jul-10 13:58N 39°35' W 075°35'0 0.0
2018-Jul-10 13:28N 39°35' W 075°35'0 0.0
2018-Jul-10 12:58N 39°35' W 075°35'0 0.0
2018-Jul-10 12:28N 39°35' W 075°35'0 0.0
2018-Jul-10 11:58N 39°35' W 075°35'0 0.0
2018-Jul-10 11:28N 39°35' W 075°35'0 0.0
2018-Jul-10 10:58N 39°35' W 075°35'0 0.0
2018-Jul-10 10:28N 39°35' W 075°35'0 0.0
2018-Jul-10 09:58N 39°35' W 075°35'0 0.0
2018-Jul-10 09:28N 39°35' W 075°35'0 0.0
2018-Jul-10 08:58N 39°35' W 075°35'0 0.0
2018-Jul-10 08:28N 39°35' W 075°35'0 0.0
2018-Jul-10 07:58N 39°35' W 075°35'0 0.0
2018-Jul-10 07:28N 39°35' W 075°35'0 0.0
2018-Jul-10 06:58N 39°35' W 075°35'0 0.0
2018-Jul-10 06:28N 39°35' W 075°35'0 0.0
2018-Jul-10 05:58N 39°35' W 075°35'0 0.0
2018-Jul-10 05:28N 39°35' W 075°35'0 0.0
2018-Jul-10 04:58N 39°35' W 075°35'0 0.0
2018-Jul-10 04:28N 39°35' W 075°35'0 0.0
2018-Jul-10 03:58N 39°35' W 075°35'0 0.0
2018-Jul-10 03:28N 39°35' W 075°35'0 0.0
2018-Jul-10 02:58N 39°35' W 075°35'  

Dump ship's entire track history